sensor_id;sensor_type;location;lat;lon;timestamp;temperature;humidity
1447;DHT22;717;51.522;7.266;2023-11-19T00:01:41;13.50;99.90
1447;DHT22;717;51.522;7.266;2023-11-19T00:04:13;13.60;99.90
1447;DHT22;717;51.522;7.266;2023-11-19T00:06:43;13.70;99.90
1447;DHT22;717;51.522;7.266;2023-11-19T00:09:13;13.70;99.90
1447;DHT22;717;51.522;7.266;2023-11-19T00:11:45;13.70;99.90
1447;DHT22;717;51.522;7.266;2023-11-19T00:14:18;13.80;99.90
1447;DHT22;717;51.522;7.266;2023-11-19T00:16:48;13.80;99.90
1447;DHT22;717;51.522;7.266;2023-11-19T00:19:20;13.80;99.90
1447;DHT22;717;51.522;7.266;2023-11-19T00:21:51;13.90;99.90
1447;DHT22;717;51.522;7.266;2023-11-19T00:24:21;13.90;99.90
1447;DHT22;717;51.522;7.266;2023-11-19T00:26:51;14.00;99.90
1447;DHT22;717;51.522;7.266;2023-11-19T00:29:21;13.90;99.90
1447;DHT22;717;51.522;7.266;2023-11-19T00:31:51;14.00;99.90
1447;DHT22;717;51.522;7.266;2023-11-19T00:34:24;14.00;99.90
1447;DHT22;717;51.522;7.266;2023-11-19T00:36:54;14.00;99.90
1447;DHT22;717;51.522;7.266;2023-11-19T00:39:25;14.10;99.90
1447;DHT22;717;51.522;7.266;2023-11-19T00:41:55;14.10;99.90
1447;DHT22;717;51.522;7.266;2023-11-19T00:44:25;14.20;99.90
1447;DHT22;717;51.522;7.266;2023-11-19T00:46:55;14.20;99.90
1447;DHT22;717;51.522;7.266;2023-11-19T00:49:28;14.20;99.90
1447;DHT22;717;51.522;7.266;2023-11-19T00:52:00;14.20;99.90
1447;DHT22;717;51.522;7.266;2023-11-19T00:54:30;14.20;99.90
1447;DHT22;717;51.522;7.266;2023-11-19T00:57:00;14.20;99.90
1447;DHT22;717;51.522;7.266;2023-11-19T00:59:30;14.20;99.90
1447;DHT22;717;51.522;7.266;2023-11-19T01:02:00;14.30;99.90
1447;DHT22;717;51.522;7.266;2023-11-19T01:04:36;14.30;99.90
1447;DHT22;717;51.522;7.266;2023-11-19T01:07:07;14.40;99.90
1447;DHT22;717;51.522;7.266;2023-11-19T01:09:41;14.40;99.90
1447;DHT22;717;51.522;7.266;2023-11-19T01:12:12;14.40;99.90
1447;DHT22;717;51.522;7.266;2023-11-19T01:14:42;14.50;99.90
1447;DHT22;717;51.522;7.266;2023-11-19T01:17:12;14.50;99.90
1447;DHT22;717;51.522;7.266;2023-11-19T01:19:47;14.50;99.90
1447;DHT22;717;51.522;7.266;2023-11-19T01:22:17;14.50;99.90
1447;DHT22;717;51.522;7.266;2023-11-19T01:24:48;14.50;99.90
1447;DHT22;717;51.522;7.266;2023-11-19T01:27:19;14.50;99.90
1447;DHT22;717;51.522;7.266;2023-11-19T01:29:49;14.50;99.90
1447;DHT22;717;51.522;7.266;2023-11-19T01:32:19;14.60;99.90
1447;DHT22;717;51.522;7.266;2023-11-19T01:34:53;14.50;99.90
1447;DHT22;717;51.522;7.266;2023-11-19T01:37:24;14.50;99.90
1447;DHT22;717;51.522;7.266;2023-11-19T01:39:54;14.60;99.90
1447;DHT22;717;51.522;7.266;2023-11-19T01:42:25;14.60;99.90
1447;DHT22;717;51.522;7.266;2023-11-19T01:44:58;14.60;99.90
1447;DHT22;717;51.522;7.266;2023-11-19T01:47:29;14.70;99.90
1447;DHT22;717;51.522;7.266;2023-11-19T01:50:03;14.70;99.90
1447;DHT22;717;51.522;7.266;2023-11-19T01:52:36;14.70;99.90
1447;DHT22;717;51.522;7.266;2023-11-19T01:55:08;14.70;99.90
1447;DHT22;717;51.522;7.266;2023-11-19T01:57:39;14.70;99.90
1447;DHT22;717;51.522;7.266;2023-11-19T02:00:11;14.70;99.90
1447;DHT22;717;51.522;7.266;2023-11-19T02:02:43;14.70;99.90
1447;DHT22;717;51.522;7.266;2023-11-19T02:05:16;14.80;99.90
1447;DHT22;717;51.522;7.266;2023-11-19T02:07:47;14.80;99.90
1447;DHT22;717;51.522;7.266;2023-11-19T02:10:18;14.70;99.90
1447;DHT22;717;51.522;7.266;2023-11-19T02:12:52;14.80;99.90
1447;DHT22;717;51.522;7.266;2023-11-19T02:15:32;14.80;99.90
1447;DHT22;717;51.522;7.266;2023-11-19T02:18:19;14.80;99.90
1447;DHT22;717;51.522;7.266;2023-11-19T02:20:52;14.80;99.90
1447;DHT22;717;51.522;7.266;2023-11-19T02:23:23;14.80;99.90
1447;DHT22;717;51.522;7.266;2023-11-19T02:26:14;14.90;99.90
1447;DHT22;717;51.522;7.266;2023-11-19T02:28:47;14.90;99.90
1447;DHT22;717;51.522;7.266;2023-11-19T02:31:17;14.90;99.90
1447;DHT22;717;51.522;7.266;2023-11-19T02:33:47;14.90;99.90
1447;DHT22;717;51.522;7.266;2023-11-19T02:36:17;14.90;99.90
1447;DHT22;717;51.522;7.266;2023-11-19T02:38:48;15.00;99.90
1447;DHT22;717;51.522;7.266;2023-11-19T02:41:18;15.00;99.90
1447;DHT22;717;51.522;7.266;2023-11-19T02:43:51;15.00;99.90
1447;DHT22;717;51.522;7.266;2023-11-19T02:46:21;15.00;99.90
1447;DHT22;717;51.522;7.266;2023-11-19T02:48:52;15.00;99.90
1447;DHT22;717;51.522;7.266;2023-11-19T02:51:23;15.00;99.90
1447;DHT22;717;51.522;7.266;2023-11-19T02:53:55;15.10;99.90
1447;DHT22;717;51.522;7.266;2023-11-19T02:56:25;15.10;99.90
1447;DHT22;717;51.522;7.266;2023-11-19T02:58:59;15.10;99.90
1447;DHT22;717;51.522;7.266;2023-11-19T03:01:34;15.20;99.90
1447;DHT22;717;51.522;7.266;2023-11-19T03:04:05;15.20;99.90
1447;DHT22;717;51.522;7.266;2023-11-19T03:06:39;15.10;99.90
1447;DHT22;717;51.522;7.266;2023-11-19T03:09:09;15.10;99.90
1447;DHT22;717;51.522;7.266;2023-11-19T03:11:39;15.10;99.90
1447;DHT22;717;51.522;7.266;2023-11-19T03:14:12;15.20;99.90
1447;DHT22;717;51.522;7.266;2023-11-19T03:16:45;15.10;99.90
1447;DHT22;717;51.522;7.266;2023-11-19T03:19:15;15.20;99.90
1447;DHT22;717;51.522;7.266;2023-11-19T03:21:48;15.10;99.90
1447;DHT22;717;51.522;7.266;2023-11-19T03:24:18;15.20;99.90
1447;DHT22;717;51.522;7.266;2023-11-19T03:26:48;15.10;99.90
1447;DHT22;717;51.522;7.266;2023-11-19T03:29:22;15.10;99.90
1447;DHT22;717;51.522;7.266;2023-11-19T03:31:53;15.10;99.90
1447;DHT22;717;51.522;7.266;2023-11-19T03:34:23;15.20;99.90
1447;DHT22;717;51.522;7.266;2023-11-19T03:36:53;15.20;99.90
1447;DHT22;717;51.522;7.266;2023-11-19T03:39:24;15.20;99.90
1447;DHT22;717;51.522;7.266;2023-11-19T03:41:54;15.20;99.90
1447;DHT22;717;51.522;7.266;2023-11-19T03:44:27;15.20;99.90
1447;DHT22;717;51.522;7.266;2023-11-19T03:46:57;15.10;99.90
1447;DHT22;717;51.522;7.266;2023-11-19T03:49:27;15.10;99.90
1447;DHT22;717;51.522;7.266;2023-11-19T03:51:57;15.10;99.90
1447;DHT22;717;51.522;7.266;2023-11-19T03:54:28;15.10;99.90
1447;DHT22;717;51.522;7.266;2023-11-19T03:56:59;15.00;99.90
1447;DHT22;717;51.522;7.266;2023-11-19T03:59:33;15.00;99.90
1447;DHT22;717;51.522;7.266;2023-11-19T04:02:03;15.00;99.90
1447;DHT22;717;51.522;7.266;2023-11-19T04:04:33;14.90;99.90
1447;DHT22;717;51.522;7.266;2023-11-19T04:07:05;14.90;99.90
1447;DHT22;717;51.522;7.266;2023-11-19T04:09:35;14.90;99.90
1447;DHT22;717;51.522;7.266;2023-11-19T04:12:06;14.90;99.90
1447;DHT22;717;51.522;7.266;2023-11-19T04:14:39;14.90;99.90
1447;DHT22;717;51.522;7.266;2023-11-19T04:17:09;15.00;99.90
1447;DHT22;717;51.522;7.266;2023-11-19T04:19:39;15.00;99.90
1447;DHT22;717;51.522;7.266;2023-11-19T04:22:10;15.00;99.90
1447;DHT22;717;51.522;7.266;2023-11-19T04:24:40;15.00;99.90
1447;DHT22;717;51.522;7.266;2023-11-19T04:27:11;15.00;99.90
1447;DHT22;717;51.522;7.266;2023-11-19T04:29:43;15.00;99.90
1447;DHT22;717;51.522;7.266;2023-11-19T04:32:14;15.00;99.90
1447;DHT22;717;51.522;7.266;2023-11-19T04:34:44;15.00;99.90
1447;DHT22;717;51.522;7.266;2023-11-19T04:37:14;14.90;99.90
1447;DHT22;717;51.522;7.266;2023-11-19T04:39:45;14.90;99.90
1447;DHT22;717;51.522;7.266;2023-11-19T04:42:15;15.00;99.90
1447;DHT22;717;51.522;7.266;2023-11-19T04:44:49;14.90;99.90
1447;DHT22;717;51.522;7.266;2023-11-19T04:47:19;15.00;99.90
1447;DHT22;717;51.522;7.266;2023-11-19T04:49:50;14.90;99.90
1447;DHT22;717;51.522;7.266;2023-11-19T04:52:20;14.90;99.90
1447;DHT22;717;51.522;7.266;2023-11-19T04:54:50;14.90;99.90
1447;DHT22;717;51.522;7.266;2023-11-19T04:57:20;14.90;99.90
1447;DHT22;717;51.522;7.266;2023-11-19T04:59:53;14.90;99.90
1447;DHT22;717;51.522;7.266;2023-11-19T05:02:23;14.90;99.90
1447;DHT22;717;51.522;7.266;2023-11-19T05:04:53;14.90;99.90
1447;DHT22;717;51.522;7.266;2023-11-19T05:07:23;14.90;99.90
1447;DHT22;717;51.522;7.266;2023-11-19T05:09:53;14.80;99.90
1447;DHT22;717;51.522;7.266;2023-11-19T05:12:24;14.80;99.90
1447;DHT22;717;51.522;7.266;2023-11-19T05:14:57;14.80;99.90
1447;DHT22;717;51.522;7.266;2023-11-19T05:17:27;14.80;99.90
1447;DHT22;717;51.522;7.266;2023-11-19T05:19:57;14.80;99.90
1447;DHT22;717;51.522;7.266;2023-11-19T05:22:28;14.90;99.90
1447;DHT22;717;51.522;7.266;2023-11-19T05:24:58;14.80;99.90
1447;DHT22;717;51.522;7.266;2023-11-19T05:27:29;14.80;99.90
1447;DHT22;717;51.522;7.266;2023-11-19T05:30:02;14.80;99.90
1447;DHT22;717;51.522;7.266;2023-11-19T05:32:34;14.80;99.90
1447;DHT22;717;51.522;7.266;2023-11-19T05:35:05;14.90;99.90
1447;DHT22;717;51.522;7.266;2023-11-19T05:37:35;14.90;99.90
1447;DHT22;717;51.522;7.266;2023-11-19T05:40:07;14.90;99.90
1447;DHT22;717;51.522;7.266;2023-11-19T05:42:42;14.90;99.90
1447;DHT22;717;51.522;7.266;2023-11-19T05:45:15;15.00;99.90
1447;DHT22;717;51.522;7.266;2023-11-19T05:47:45;15.00;99.90
1447;DHT22;717;51.522;7.266;2023-11-19T05:50:15;14.90;99.90
1447;DHT22;717;51.522;7.266;2023-11-19T05:52:46;14.90;99.90
1447;DHT22;717;51.522;7.266;2023-11-19T05:55:16;14.90;99.90
1447;DHT22;717;51.522;7.266;2023-11-19T05:57:46;14.90;99.90
1447;DHT22;717;51.522;7.266;2023-11-19T06:00:21;14.90;99.90
1447;DHT22;717;51.522;7.266;2023-11-19T06:02:51;14.90;99.90
1447;DHT22;717;51.522;7.266;2023-11-19T06:05:21;14.90;99.90
1447;DHT22;717;51.522;7.266;2023-11-19T06:07:51;15.00;99.90
1447;DHT22;717;51.522;7.266;2023-11-19T06:10:22;15.00;99.90
1447;DHT22;717;51.522;7.266;2023-11-19T06:12:57;15.00;99.90
1447;DHT22;717;51.522;7.266;2023-11-19T06:15:30;15.00;99.90
1447;DHT22;717;51.522;7.266;2023-11-19T06:18:00;15.00;99.90
1447;DHT22;717;51.522;7.266;2023-11-19T06:20:31;15.00;99.90
1447;DHT22;717;51.522;7.266;2023-11-19T06:23:03;15.00;99.90
1447;DHT22;717;51.522;7.266;2023-11-19T06:25:34;14.90;99.90
1447;DHT22;717;51.522;7.266;2023-11-19T06:28:04;15.00;99.90
1447;DHT22;717;51.522;7.266;2023-11-19T06:30:37;15.00;99.90
1447;DHT22;717;51.522;7.266;2023-11-19T06:33:08;15.00;99.90
1447;DHT22;717;51.522;7.266;2023-11-19T06:35:38;14.90;99.90
1447;DHT22;717;51.522;7.266;2023-11-19T06:38:08;14.90;99.90
1447;DHT22;717;51.522;7.266;2023-11-19T06:40:38;14.90;99.90
1447;DHT22;717;51.522;7.266;2023-11-19T06:43:09;14.90;99.90
1447;DHT22;717;51.522;7.266;2023-11-19T06:45:41;14.80;99.90
1447;DHT22;717;51.522;7.266;2023-11-19T06:48:11;14.80;99.90
1447;DHT22;717;51.522;7.266;2023-11-19T06:50:42;14.80;99.90
1447;DHT22;717;51.522;7.266;2023-11-19T06:53:12;14.80;99.90
1447;DHT22;717;51.522;7.266;2023-11-19T06:55:42;14.80;99.90
1447;DHT22;717;51.522;7.266;2023-11-19T06:58:12;14.80;99.90
1447;DHT22;717;51.522;7.266;2023-11-19T07:00:45;14.80;99.90
1447;DHT22;717;51.522;7.266;2023-11-19T07:03:16;14.90;99.90
1447;DHT22;717;51.522;7.266;2023-11-19T07:05:47;14.80;99.90
1447;DHT22;717;51.522;7.266;2023-11-19T07:08:17;14.80;99.90
1447;DHT22;717;51.522;7.266;2023-11-19T07:10:47;14.80;99.90
1447;DHT22;717;51.522;7.266;2023-11-19T07:13:17;14.80;99.90
1447;DHT22;717;51.522;7.266;2023-11-19T07:15:50;14.80;99.90
1447;DHT22;717;51.522;7.266;2023-11-19T07:18:20;14.80;99.90
1447;DHT22;717;51.522;7.266;2023-11-19T07:20:51;14.70;99.90
1447;DHT22;717;51.522;7.266;2023-11-19T07:23:22;14.70;99.90
1447;DHT22;717;51.522;7.266;2023-11-19T07:25:53;14.70;99.90
1447;DHT22;717;51.522;7.266;2023-11-19T07:28:23;14.80;99.90
1447;DHT22;717;51.522;7.266;2023-11-19T07:30:58;14.90;99.90
1447;DHT22;717;51.522;7.266;2023-11-19T07:33:29;14.90;99.90
1447;DHT22;717;51.522;7.266;2023-11-19T07:35:59;14.80;99.90
1447;DHT22;717;51.522;7.266;2023-11-19T07:38:29;14.90;99.90
1447;DHT22;717;51.522;7.266;2023-11-19T07:40:59;14.80;99.90
1447;DHT22;717;51.522;7.266;2023-11-19T07:43:29;14.90;99.90
1447;DHT22;717;51.522;7.266;2023-11-19T07:46:02;14.90;99.90
1447;DHT22;717;51.522;7.266;2023-11-19T07:48:34;15.00;99.90
1447;DHT22;717;51.522;7.266;2023-11-19T07:51:05;14.90;99.90
1447;DHT22;717;51.522;7.266;2023-11-19T07:53:35;14.90;99.90
1447;DHT22;717;51.522;7.266;2023-11-19T07:56:06;14.90;99.90
1447;DHT22;717;51.522;7.266;2023-11-19T07:58:37;14.90;99.90
1447;DHT22;717;51.522;7.266;2023-11-19T08:01:09;14.90;99.90
1447;DHT22;717;51.522;7.266;2023-11-19T08:03:40;14.90;99.90
1447;DHT22;717;51.522;7.266;2023-11-19T08:06:25;14.90;99.90
1447;DHT22;717;51.522;7.266;2023-11-19T08:08:55;14.90;99.90
1447;DHT22;717;51.522;7.266;2023-11-19T08:11:26;14.90;99.90
1447;DHT22;717;51.522;7.266;2023-11-19T08:13:56;15.00;99.90
1447;DHT22;717;51.522;7.266;2023-11-19T08:16:29;15.00;99.90
1447;DHT22;717;51.522;7.266;2023-11-19T08:18:59;14.90;99.90
1447;DHT22;717;51.522;7.266;2023-11-19T08:21:30;14.90;99.90
1447;DHT22;717;51.522;7.266;2023-11-19T08:24:00;14.90;99.90
1447;DHT22;717;51.522;7.266;2023-11-19T08:26:30;14.90;99.90
1447;DHT22;717;51.522;7.266;2023-11-19T08:29:00;14.90;99.90
1447;DHT22;717;51.522;7.266;2023-11-19T08:31:33;14.90;99.90
1447;DHT22;717;51.522;7.266;2023-11-19T08:34:03;14.90;99.90
1447;DHT22;717;51.522;7.266;2023-11-19T08:36:36;14.90;99.90
1447;DHT22;717;51.522;7.266;2023-11-19T08:39:06;14.90;99.90
1447;DHT22;717;51.522;7.266;2023-11-19T08:41:36;15.00;99.90
1447;DHT22;717;51.522;7.266;2023-11-19T08:44:07;15.00;99.90
1447;DHT22;717;51.522;7.266;2023-11-19T08:46:46;14.90;99.90
1447;DHT22;717;51.522;7.266;2023-11-19T08:49:16;14.90;99.90
1447;DHT22;717;51.522;7.266;2023-11-19T08:51:46;14.80;99.90
1447;DHT22;717;51.522;7.266;2023-11-19T08:54:17;14.90;99.90
1447;DHT22;717;51.522;7.266;2023-11-19T08:56:47;14.90;99.90
1447;DHT22;717;51.522;7.266;2023-11-19T08:59:17;14.90;99.90
1447;DHT22;717;51.522;7.266;2023-11-19T09:01:51;14.90;99.90
1447;DHT22;717;51.522;7.266;2023-11-19T09:04:22;14.90;99.90
1447;DHT22;717;51.522;7.266;2023-11-19T09:06:52;14.90;99.90
1447;DHT22;717;51.522;7.266;2023-11-19T09:09:22;14.90;99.90
1447;DHT22;717;51.522;7.266;2023-11-19T09:11:52;15.00;99.90
1447;DHT22;717;51.522;7.266;2023-11-19T09:14:22;14.90;99.90
1447;DHT22;717;51.522;7.266;2023-11-19T09:16:55;15.00;99.90
1447;DHT22;717;51.522;7.266;2023-11-19T09:19:26;15.00;99.90
1447;DHT22;717;51.522;7.266;2023-11-19T09:21:56;15.00;99.90
1447;DHT22;717;51.522;7.266;2023-11-19T09:24:26;15.10;99.90
1447;DHT22;717;51.522;7.266;2023-11-19T09:26:56;15.10;99.90
1447;DHT22;717;51.522;7.266;2023-11-19T09:29:27;15.10;99.90
1447;DHT22;717;51.522;7.266;2023-11-19T09:32:00;15.10;99.90
1447;DHT22;717;51.522;7.266;2023-11-19T09:34:32;15.20;99.90
1447;DHT22;717;51.522;7.266;2023-11-19T09:37:02;15.20;99.90
1447;DHT22;717;51.522;7.266;2023-11-19T09:39:48;15.30;99.90
1447;DHT22;717;51.522;7.266;2023-11-19T09:42:18;15.20;99.90
1447;DHT22;717;51.522;7.266;2023-11-19T09:44:48;15.20;99.90
1447;DHT22;717;51.522;7.266;2023-11-19T09:47:21;15.20;99.90
1447;DHT22;717;51.522;7.266;2023-11-19T09:49:52;15.20;99.90
1447;DHT22;717;51.522;7.266;2023-11-19T09:52:25;15.20;99.90
1447;DHT22;717;51.522;7.266;2023-11-19T09:54:55;15.10;99.90
1447;DHT22;717;51.522;7.266;2023-11-19T09:57:26;15.20;99.90
1447;DHT22;717;51.522;7.266;2023-11-19T09:59:56;15.20;99.90
1447;DHT22;717;51.522;7.266;2023-11-19T10:02:31;15.20;99.90
1447;DHT22;717;51.522;7.266;2023-11-19T10:05:06;15.20;99.90
1447;DHT22;717;51.522;7.266;2023-11-19T10:07:37;15.30;99.90
1447;DHT22;717;51.522;7.266;2023-11-19T10:10:08;15.30;99.90
1447;DHT22;717;51.522;7.266;2023-11-19T10:12:41;15.40;99.90
1447;DHT22;717;51.522;7.266;2023-11-19T10:15:20;15.40;99.90
1447;DHT22;717;51.522;7.266;2023-11-19T10:17:55;15.30;99.90
1447;DHT22;717;51.522;7.266;2023-11-19T10:20:25;15.40;99.90
1447;DHT22;717;51.522;7.266;2023-11-19T10:22:56;15.40;99.90
1447;DHT22;717;51.522;7.266;2023-11-19T10:25:27;15.40;99.90
1447;DHT22;717;51.522;7.266;2023-11-19T10:27:57;15.40;99.90
1447;DHT22;717;51.522;7.266;2023-11-19T10:30:30;15.50;99.90
1447;DHT22;717;51.522;7.266;2023-11-19T10:33:08;15.50;99.90
1447;DHT22;717;51.522;7.266;2023-11-19T10:35:52;15.60;99.90
1447;DHT22;717;51.522;7.266;2023-11-19T10:38:26;15.60;99.90
1447;DHT22;717;51.522;7.266;2023-11-19T10:40:58;15.60;99.90
1447;DHT22;717;51.522;7.266;2023-11-19T10:43:28;15.60;99.90
1447;DHT22;717;51.522;7.266;2023-11-19T10:46:09;15.60;99.90
1447;DHT22;717;51.522;7.266;2023-11-19T10:48:44;15.60;99.90
1447;DHT22;717;51.522;7.266;2023-11-19T10:51:18;15.70;99.90
1447;DHT22;717;51.522;7.266;2023-11-19T10:53:51;15.70;99.90
1447;DHT22;717;51.522;7.266;2023-11-19T10:56:24;15.80;99.90
1447;DHT22;717;51.522;7.266;2023-11-19T10:58:55;15.90;99.90
1447;DHT22;717;51.522;7.266;2023-11-19T11:01:32;15.90;99.90
1447;DHT22;717;51.522;7.266;2023-11-19T11:04:06;15.90;99.90
1447;DHT22;717;51.522;7.266;2023-11-19T11:06:40;15.90;99.90
1447;DHT22;717;51.522;7.266;2023-11-19T11:09:11;16.00;99.90
1447;DHT22;717;51.522;7.266;2023-11-19T11:11:46;15.90;99.90
1447;DHT22;717;51.522;7.266;2023-11-19T11:14:18;15.90;99.90
1447;DHT22;717;51.522;7.266;2023-11-19T11:16:51;15.90;99.90
1447;DHT22;717;51.522;7.266;2023-11-19T11:19:26;15.90;99.90
1447;DHT22;717;51.522;7.266;2023-11-19T11:21:57;15.90;99.90
1447;DHT22;717;51.522;7.266;2023-11-19T11:24:40;15.80;99.90
1447;DHT22;717;51.522;7.266;2023-11-19T11:30:20;15.90;99.90
1447;DHT22;717;51.522;7.266;2023-11-19T11:33:02;15.90;99.90
1447;DHT22;717;51.522;7.266;2023-11-19T11:35:55;15.90;99.90
1447;DHT22;717;51.522;7.266;2023-11-19T11:38:29;15.90;99.90
1447;DHT22;717;51.522;7.266;2023-11-19T11:41:15;15.90;99.90
1447;DHT22;717;51.522;7.266;2023-11-19T11:43:50;15.90;99.90
1447;DHT22;717;51.522;7.266;2023-11-19T11:49:26;15.90;99.90
1447;DHT22;717;51.522;7.266;2023-11-19T11:52:06;15.90;99.90
1447;DHT22;717;51.522;7.266;2023-11-19T11:54:41;15.90;99.90
1447;DHT22;717;51.522;7.266;2023-11-19T11:57:12;15.90;99.90
1447;DHT22;717;51.522;7.266;2023-11-19T11:59:46;15.80;99.90
1447;DHT22;717;51.522;7.266;2023-11-19T12:02:18;15.90;99.90
1447;DHT22;717;51.522;7.266;2023-11-19T12:04:49;16.00;99.90
1447;DHT22;717;51.522;7.266;2023-11-19T12:07:24;16.00;99.90
1447;DHT22;717;51.522;7.266;2023-11-19T12:10:08;16.00;99.90
1447;DHT22;717;51.522;7.266;2023-11-19T12:12:40;16.00;99.90
1447;DHT22;717;51.522;7.266;2023-11-19T12:15:10;16.00;99.90
1447;DHT22;717;51.522;7.266;2023-11-19T12:17:49;16.00;99.90
1447;DHT22;717;51.522;7.266;2023-11-19T12:20:21;16.00;99.90
1447;DHT22;717;51.522;7.266;2023-11-19T12:22:56;16.10;99.90
1447;DHT22;717;51.522;7.266;2023-11-19T12:25:27;16.20;99.90
1447;DHT22;717;51.522;7.266;2023-11-19T12:28:04;16.30;99.90
1447;DHT22;717;51.522;7.266;2023-11-19T12:30:34;16.30;99.90
1447;DHT22;717;51.522;7.266;2023-11-19T12:33:08;16.30;99.90
1447;DHT22;717;51.522;7.266;2023-11-19T12:35:39;16.30;99.90
1447;DHT22;717;51.522;7.266;2023-11-19T12:38:18;16.30;99.90
1447;DHT22;717;51.522;7.266;2023-11-19T12:41:02;16.30;99.90
1447;DHT22;717;51.522;7.266;2023-11-19T12:43:36;16.30;99.90
1447;DHT22;717;51.522;7.266;2023-11-19T12:46:17;16.20;99.90
1447;DHT22;717;51.522;7.266;2023-11-19T12:48:49;16.30;99.90
1447;DHT22;717;51.522;7.266;2023-11-19T12:51:20;16.30;99.90
1447;DHT22;717;51.522;7.266;2023-11-19T12:53:53;16.30;99.90
1447;DHT22;717;51.522;7.266;2023-11-19T12:56:25;16.30;99.90
1447;DHT22;717;51.522;7.266;2023-11-19T12:58:56;16.20;99.90
1447;DHT22;717;51.522;7.266;2023-11-19T13:01:27;16.30;99.90
1447;DHT22;717;51.522;7.266;2023-11-19T13:03:57;16.20;99.90
1447;DHT22;717;51.522;7.266;2023-11-19T13:06:28;16.20;99.90
1447;DHT22;717;51.522;7.266;2023-11-19T13:09:00;16.10;99.90
1447;DHT22;717;51.522;7.266;2023-11-19T13:11:31;16.10;99.90
1447;DHT22;717;51.522;7.266;2023-11-19T13:14:02;16.10;99.90
1447;DHT22;717;51.522;7.266;2023-11-19T13:16:37;16.00;99.90
1447;DHT22;717;51.522;7.266;2023-11-19T13:19:07;15.90;99.90
1447;DHT22;717;51.522;7.266;2023-11-19T13:21:37;15.80;99.90
1447;DHT22;717;51.522;7.266;2023-11-19T13:24:10;15.70;99.90
1447;DHT22;717;51.522;7.266;2023-11-19T13:26:40;15.60;99.90
1447;DHT22;717;51.522;7.266;2023-11-19T13:29:10;15.50;99.90
1447;DHT22;717;51.522;7.266;2023-11-19T13:31:41;15.40;99.90
1447;DHT22;717;51.522;7.266;2023-11-19T13:34:11;15.30;99.90
1447;DHT22;717;51.522;7.266;2023-11-19T13:36:41;15.20;99.90
1447;DHT22;717;51.522;7.266;2023-11-19T13:39:14;15.20;99.90
1447;DHT22;717;51.522;7.266;2023-11-19T13:41:50;15.20;99.90
1447;DHT22;717;51.522;7.266;2023-11-19T13:44:38;15.20;99.90
1447;DHT22;717;51.522;7.266;2023-11-19T13:47:09;15.20;99.90
1447;DHT22;717;51.522;7.266;2023-11-19T13:49:41;15.10;99.90
1447;DHT22;717;51.522;7.266;2023-11-19T13:52:11;15.10;99.90
1447;DHT22;717;51.522;7.266;2023-11-19T13:54:44;15.10;99.90
1447;DHT22;717;51.522;7.266;2023-11-19T13:57:14;15.10;99.90
1447;DHT22;717;51.522;7.266;2023-11-19T13:59:44;15.10;99.90
1447;DHT22;717;51.522;7.266;2023-11-19T14:02:14;15.10;99.90
1447;DHT22;717;51.522;7.266;2023-11-19T14:04:44;15.20;99.90
1447;DHT22;717;51.522;7.266;2023-11-19T14:07:14;15.20;99.90
1447;DHT22;717;51.522;7.266;2023-11-19T14:09:47;15.30;99.90
1447;DHT22;717;51.522;7.266;2023-11-19T14:12:18;15.30;99.90
1447;DHT22;717;51.522;7.266;2023-11-19T14:14:48;15.40;99.90
1447;DHT22;717;51.522;7.266;2023-11-19T14:17:18;15.40;99.90
1447;DHT22;717;51.522;7.266;2023-11-19T14:19:48;15.40;99.90
1447;DHT22;717;51.522;7.266;2023-11-19T14:22:18;15.50;99.90
1447;DHT22;717;51.522;7.266;2023-11-19T14:24:51;15.50;99.90
1447;DHT22;717;51.522;7.266;2023-11-19T14:27:22;15.60;99.90
1447;DHT22;717;51.522;7.266;2023-11-19T14:29:52;15.50;99.90
1447;DHT22;717;51.522;7.266;2023-11-19T14:32:22;15.50;99.90
1447;DHT22;717;51.522;7.266;2023-11-19T14:34:52;15.60;99.90
1447;DHT22;717;51.522;7.266;2023-11-19T14:37:22;15.60;99.90
1447;DHT22;717;51.522;7.266;2023-11-19T14:39:55;15.50;99.90
1447;DHT22;717;51.522;7.266;2023-11-19T14:42:26;15.50;99.90
1447;DHT22;717;51.522;7.266;2023-11-19T14:44:56;15.40;99.90
1447;DHT22;717;51.522;7.266;2023-11-19T14:47:26;15.30;99.90
1447;DHT22;717;51.522;7.266;2023-11-19T14:49:57;15.40;99.90
1447;DHT22;717;51.522;7.266;2023-11-19T14:52:27;15.40;99.90
1447;DHT22;717;51.522;7.266;2023-11-19T14:55:01;15.30;99.90
1447;DHT22;717;51.522;7.266;2023-11-19T14:57:31;15.30;99.90
1447;DHT22;717;51.522;7.266;2023-11-19T15:00:04;15.30;99.90
1447;DHT22;717;51.522;7.266;2023-11-19T15:02:40;15.20;99.90
1447;DHT22;717;51.522;7.266;2023-11-19T15:05:11;15.10;99.90
1447;DHT22;717;51.522;7.266;2023-11-19T15:07:42;15.10;99.90
1447;DHT22;717;51.522;7.266;2023-11-19T15:10:14;15.10;99.90
1447;DHT22;717;51.522;7.266;2023-11-19T15:12:44;15.10;99.90
1447;DHT22;717;51.522;7.266;2023-11-19T15:15:15;15.10;99.90
1447;DHT22;717;51.522;7.266;2023-11-19T15:18:02;15.10;99.90
1447;DHT22;717;51.522;7.266;2023-11-19T15:20:32;15.10;99.90
1447;DHT22;717;51.522;7.266;2023-11-19T15:23:03;15.00;99.90
1447;DHT22;717;51.522;7.266;2023-11-19T15:25:39;15.00;99.90
1447;DHT22;717;51.522;7.266;2023-11-19T15:28:09;15.00;99.90
1447;DHT22;717;51.522;7.266;2023-11-19T15:30:39;15.00;99.90
1447;DHT22;717;51.522;7.266;2023-11-19T15:33:09;14.90;99.90
1447;DHT22;717;51.522;7.266;2023-11-19T15:35:39;14.90;99.90
1447;DHT22;717;51.522;7.266;2023-11-19T15:38:10;14.90;99.90
1447;DHT22;717;51.522;7.266;2023-11-19T15:40:42;14.90;99.90
1447;DHT22;717;51.522;7.266;2023-11-19T15:43:12;14.80;99.90
1447;DHT22;717;51.522;7.266;2023-11-19T15:45:43;14.80;99.90
1447;DHT22;717;51.522;7.266;2023-11-19T15:48:13;14.70;99.90
1447;DHT22;717;51.522;7.266;2023-11-19T15:50:45;14.70;99.90
1447;DHT22;717;51.522;7.266;2023-11-19T15:53:17;14.70;99.90
1447;DHT22;717;51.522;7.266;2023-11-19T15:55:50;14.70;99.90
1447;DHT22;717;51.522;7.266;2023-11-19T15:58:21;14.60;99.90
1447;DHT22;717;51.522;7.266;2023-11-19T16:00:51;14.60;99.90
1447;DHT22;717;51.522;7.266;2023-11-19T16:03:23;14.50;99.90
1447;DHT22;717;51.522;7.266;2023-11-19T16:05:53;14.50;99.90
1447;DHT22;717;51.522;7.266;2023-11-19T16:08:35;14.50;99.90
1447;DHT22;717;51.522;7.266;2023-11-19T16:11:09;14.50;99.90
1447;DHT22;717;51.522;7.266;2023-11-19T16:13:40;14.50;99.90
1447;DHT22;717;51.522;7.266;2023-11-19T16:16:10;14.40;99.90
1447;DHT22;717;51.522;7.266;2023-11-19T16:18:40;14.40;99.90
1447;DHT22;717;51.522;7.266;2023-11-19T16:21:11;14.30;99.90
1447;DHT22;717;51.522;7.266;2023-11-19T16:23:41;14.30;99.90
1447;DHT22;717;51.522;7.266;2023-11-19T16:26:14;14.30;99.90
1447;DHT22;717;51.522;7.266;2023-11-19T16:28:45;14.30;99.90
1447;DHT22;717;51.522;7.266;2023-11-19T16:31:15;14.30;99.90
1447;DHT22;717;51.522;7.266;2023-11-19T16:33:45;14.30;99.90
1447;DHT22;717;51.522;7.266;2023-11-19T16:36:16;14.30;99.90
1447;DHT22;717;51.522;7.266;2023-11-19T16:38:46;14.30;99.90
1447;DHT22;717;51.522;7.266;2023-11-19T16:41:21;14.30;99.90
1447;DHT22;717;51.522;7.266;2023-11-19T16:43:55;14.40;99.90
1447;DHT22;717;51.522;7.266;2023-11-19T16:46:30;14.40;99.90
1447;DHT22;717;51.522;7.266;2023-11-19T16:49:00;14.30;99.90
1447;DHT22;717;51.522;7.266;2023-11-19T16:51:31;14.30;99.90
1447;DHT22;717;51.522;7.266;2023-11-19T16:54:02;14.20;99.90